^^

..:: Storico WU ::..




Lo storico viene creato da WUnderground con i dati che la stazione Meteomincio invia al loro server. L' aggiornamento viene fatto ogni 5 minuti circa, tuttavia possono esserci intervalli pił ampi a causa di errori, interruzioni di servizio o problemi nell' invio tramite FTP.


Storico stazione MeteoMincio
Giorno Sommario per Dicembre 25, 2022 Unità:  Inglese    Metrico   Entrambi
Giorno Settimana Mese Anno
  Max: Min: Media:
Temperatura: 51.8 °F 39.2 °F 46.6 °F
Dew Point: 48.2 °F 39.2 °F 44.8 °F
Umidità: 97% 86% 94%
Velocità vento: 5mph 0mph 2.1mph
Raffica: 6.2mph - -
Direzione- - West
Pressione: 30.3 in 30.2 in -
Precipitazioni: 0 in    
 
 
Tabulato Dati per Dicembre 25, 2022
Ora Temperatura Dew Point Pressione Direzione Velocità vento Raffica Umidità Intensità pioggia (oraria) Info solare Situazione
00:04 42.8 °F 41 °F 30.2 in WSW 3.7 mph 6.2 mph 96% 0 in 0.00 W/m2 unknown
00:09 42.8 °F 41 °F 30.2 in WSW 2.5 mph 5 mph 96% 0 in 0.00 W/m2 unknown
00:14 42.8 °F 41 °F 30.2 in West 3.1 mph 3.7 mph 96% 0 in 0.00 W/m2 unknown
00:19 42.8 °F 41 °F 30.2 in West 1.9 mph 3.1 mph 96% 0 in 0.00 W/m2 unknown
00:24 42.8 °F 41 °F 30.2 in WNW 1.9 mph 3.1 mph 96% 0 in 0.00 W/m2 unknown
00:29 42.8 °F 41 °F 30.2 in WNW 2.5 mph 3.7 mph 96% 0 in 0.00 W/m2 unknown
00:34 42.8 °F 41 °F 30.2 in WNW 1.9 mph 3.7 mph 95% 0 in 0.00 W/m2 unknown
00:39 42.8 °F 41 °F 30.2 in WNW 1.2 mph 2.5 mph 95% 0 in 0.00 W/m2 unknown
00:44 42.8 °F 41 °F 30.2 in WNW 1.9 mph 2.5 mph 95% 0 in 0.00 W/m2 unknown
00:49 42.8 °F 41 °F 30.2 in WNW 1.9 mph 2.5 mph 96% 0 in 0.00 W/m2 unknown
00:54 41 °F 41 °F 30.2 in NW 1.9 mph 3.7 mph 96% 0 in 0.00 W/m2 unknown
00:59 41 °F 41 °F 30.2 in NW 1.9 mph 3.7 mph 96% 0 in 0.00 W/m2 unknown
01:04 41 °F 41 °F 30.2 in West 2.5 mph 3.7 mph 96% 0 in 0.00 W/m2 unknown
01:09 41 °F 39.2 °F 30.2 in WNW 2.5 mph 3.7 mph 95% 0 in 0.00 W/m2 unknown
01:14 41 °F 39.2 °F 30.2 in WNW 1.9 mph 3.7 mph 95% 0 in 0.00 W/m2 unknown
01:19 41 °F 39.2 °F 30.2 in WNW 2.5 mph 3.7 mph 95% 0 in 0.00 W/m2 unknown
01:24 41 °F 39.2 °F 30.2 in NW 2.5 mph 3.7 mph 95% 0 in 0.00 W/m2 unknown
01:29 41 °F 39.2 °F 30.2 in NW 1.9 mph 3.7 mph 96% 0 in 0.00 W/m2 unknown
01:34 41 °F 39.2 °F 30.2 in NW 1.9 mph 2.5 mph 96% 0 in 0.00 W/m2 unknown
01:39 41 °F 39.2 °F 30.2 in NW 1.2 mph 2.5 mph 96% 0 in 0.00 W/m2 unknown
01:44 41 °F 39.2 °F 30.2 in NW 1.2 mph 2.5 mph 96% 0 in 0.00 W/m2 unknown
01:49 41 °F 39.2 °F 30.2 in NW 1.2 mph 1.9 mph 96% 0 in 0.00 W/m2 unknown
01:54 41 °F 39.2 °F 30.2 in NW 1.2 mph 2.5 mph 95% 0 in 0.00 W/m2 unknown
01:59 41 °F 39.2 °F 30.2 in NW 1.2 mph 2.5 mph 96% 0 in 0.00 W/m2 unknown
02:04 41 °F 39.2 °F 30.2 in NNW 1.9 mph 2.5 mph 96% 0 in 0.00 W/m2 unknown
02:09 41 °F 39.2 °F 30.2 in NNW 1.9 mph 2.5 mph 96% 0 in 0.00 W/m2 unknown
02:14 41 °F 39.2 °F 30.2 in NNW 1.2 mph 2.5 mph 96% 0 in 0.00 W/m2 unknown
02:19 41 °F 39.2 °F 30.2 in NNW 0.6 mph 1.9 mph 96% 0 in 0.00 W/m2 unknown
02:24 39.2 °F 39.2 °F 30.2 in NNW 1.9 mph 2.5 mph 96% 0 in 0.00 W/m2 unknown
02:29 39.2 °F 39.2 °F 30.2 in NNW 1.9 mph 2.5 mph 96% 0 in 0.00 W/m2 unknown
02:34 39.2 °F 39.2 °F 30.2 in NW 2.5 mph 3.7 mph 96% 0 in 0.00 W/m2 unknown
02:39 39.2 °F 39.2 °F 30.2 in NNW 1.9 mph 3.7 mph 96% 0 in 0.00 W/m2 unknown
02:44 39.2 °F 39.2 °F 30.2 in NNW 1.2 mph 2.5 mph 96% 0 in 0.00 W/m2 unknown
02:49 39.2 °F 39.2 °F 30.2 in NW 2.5 mph 3.7 mph 96% 0 in 0.00 W/m2 unknown
02:54 39.2 °F 39.2 °F 30.2 in WNW 2.5 mph 3.7 mph 96% 0 in 0.00 W/m2 unknown
02:59 39.2 °F 39.2 °F 30.2 in NW 2.5 mph 3.7 mph 96% 0 in 0.00 W/m2 unknown
03:04 39.2 °F 39.2 °F 30.2 in NW 1.9 mph 3.7 mph 96% 0 in 0.00 W/m2 unknown
03:09 39.2 °F 39.2 °F 30.2 in NW 1.9 mph 3.7 mph 96% 0 in 0.00 W/m2 unknown
03:14 39.2 °F 39.2 °F 30.2 in NW 2.5 mph 3.7 mph 96% 0 in 0.00 W/m2 unknown
03:19 39.2 °F 39.2 °F 30.2 in NW 2.5 mph 3.7 mph 96% 0 in 0.00 W/m2 unknown
03:24 39.2 °F 39.2 °F 30.2 in NW 2.5 mph 3.7 mph 96% 0 in 0.00 W/m2 unknown
03:29 41 °F 39.2 °F 30.2 in NW 2.5 mph 3.7 mph 96% 0 in 0.00 W/m2 unknown
03:34 41 °F 39.2 °F 30.2 in WNW 3.1 mph 3.7 mph 96% 0 in 0.00 W/m2 unknown
03:39 41 °F 39.2 °F 30.2 in WNW 3.7 mph 5 mph 96% 0 in 0.00 W/m2 unknown
03:44 41 °F 39.2 °F 30.2 in West 3.1 mph 5 mph 96% 0 in 0.00 W/m2 unknown
03:49 41 °F 39.2 °F 30.2 in WNW 2.5 mph 3.7 mph 96% 0 in 0.00 W/m2 unknown
03:54 41 °F 39.2 °F 30.2 in West 2.5 mph 3.7 mph 96% 0 in 0.00 W/m2 unknown
03:59 41 °F 39.2 °F 30.2 in West 2.5 mph 3.7 mph 96% 0 in 0.00 W/m2 unknown
04:04 41 °F 39.2 °F 30.2 in WNW 2.5 mph 3.7 mph 96% 0 in 0.00 W/m2 unknown
04:09 41 °F 39.2 °F 30.2 in WNW 1.9 mph 3.1 mph 96% 0 in 0.00 W/m2 unknown
04:14 41 °F 39.2 °F 30.2 in NW 2.5 mph 3.7 mph 96% 0 in 0.00 W/m2 unknown
04:19 41 °F 39.2 °F 30.2 in WNW 2.5 mph 3.7 mph 96% 0 in 0.00 W/m2 unknown
04:24 41 °F 39.2 °F 30.2 in WNW 2.5 mph 3.7 mph 96% 0 in 0.00 W/m2 unknown
04:29 41 °F 39.2 °F 30.2 in WNW 2.5 mph 3.7 mph 96% 0 in 0.00 W/m2 unknown
04:34 41 °F 39.2 °F 30.2 in NW 2.5 mph 3.7 mph 96% 0 in 0.00 W/m2 unknown
04:39 41 °F 41 °F 30.2 in NW 1.9 mph 3.7 mph 96% 0 in 0.00 W/m2 unknown
04:44 41 °F 41 °F 30.2 in NW 1.9 mph 3.7 mph 96% 0 in 0.00 W/m2 unknown
04:49 41 °F 41 °F 30.2 in NW 1.9 mph 3.1 mph 96% 0 in 0.00 W/m2 unknown
04:54 42.8 °F 41 °F 30.2 in NNW 1.9 mph 3.7 mph 96% 0 in 0.00 W/m2 unknown
04:59 42.8 °F 41 °F 30.2 in North 1.9 mph 3.7 mph 97% 0 in 0.00 W/m2 unknown
05:04 42.8 °F 41 °F 30.2 in North 1.9 mph 3.7 mph 97% 0 in 0.00 W/m2 unknown
05:09 42.8 °F 41 °F 30.2 in North 1.2 mph 2.5 mph 96% 0 in 0.00 W/m2 unknown
05:14 42.8 °F 42.8 °F 30.2 in North 1.2 mph 2.5 mph 97% 0 in 0.00 W/m2 unknown
05:19 42.8 °F 42.8 °F 30.2 in North 1.2 mph 2.5 mph 97% 0 in 0.00 W/m2 unknown
05:24 42.8 °F 42.8 °F 30.2 in North 1.2 mph 2.5 mph 97% 0 in 0.00 W/m2 unknown
05:29 42.8 °F 42.8 °F 30.2 in East 1.9 mph 3.7 mph 97% 0 in 0.00 W/m2 unknown
05:34 42.8 °F 42.8 °F 30.2 in SE 1.9 mph 3.1 mph 97% 0 in 0.00 W/m2 unknown
05:39 42.8 °F 41 °F 30.2 in SSE 1.9 mph 3.7 mph 96% 0 in 0.00 W/m2 unknown
05:44 42.8 °F 41 °F 30.2 in South 1.9 mph 3.7 mph 96% 0 in 0.00 W/m2 unknown
05:49 42.8 °F 42.8 °F 30.2 in South 1.2 mph 3.7 mph 97% 0 in 0.00 W/m2 unknown
05:54 42.8 °F 42.8 °F 30.2 in South 2.5 mph 3.7 mph 97% 0 in 0.00 W/m2 unknown
05:59 42.8 °F 42.8 °F 30.2 in South 3.1 mph 3.7 mph 97% 0 in 0.00 W/m2 unknown
06:04 42.8 °F 42.8 °F 30.2 in South 3.1 mph 3.7 mph 97% 0 in 0.00 W/m2 unknown
06:09 42.8 °F 42.8 °F 30.2 in South 3.7 mph 5 mph 97% 0 in 0.00 W/m2 unknown
06:14 42.8 °F 42.8 °F 30.2 in SSW 3.1 mph 5 mph 97% 0 in 0.00 W/m2 unknown
06:19 42.8 °F 42.8 °F 30.2 in South 1.9 mph 3.7 mph 97% 0 in 0.00 W/m2 unknown
06:24 42.8 °F 42.8 °F 30.2 in South 3.1 mph 5 mph 97% 0 in 0.00 W/m2 unknown
06:29 42.8 °F 42.8 °F 30.2 in South 3.1 mph 5 mph 97% 0 in 0.00 W/m2 unknown
06:34 42.8 °F 42.8 °F 30.2 in South 1.9 mph 3.7 mph 97% 0 in 0.00 W/m2 unknown
06:39 42.8 °F 42.8 °F 30.2 in SSW 1.2 mph 3.1 mph 97% 0 in 0.00 W/m2 unknown
06:44 42.8 °F 42.8 °F 30.2 in SW 1.2 mph 2.5 mph 97% 0 in 0.00 W/m2 unknown
06:49 42.8 °F 42.8 °F 30.2 in SW 1.9 mph 2.5 mph 97% 0 in 0.00 W/m2 unknown
06:54 42.8 °F 42.8 °F 30.2 in SW 1.9 mph 2.5 mph 96% 0 in 0.00 W/m2 unknown
06:59 42.8 °F 42.8 °F 30.2 in SW 1.2 mph 2.5 mph 96% 0 in 0.00 W/m2 unknown
07:04 42.8 °F 42.8 °F 30.2 in SW 1.9 mph 2.5 mph 96% 0 in 0.00 W/m2 unknown
07:09 42.8 °F 42.8 °F 30.2 in SW 1.2 mph 2.5 mph 97% 0 in 0.00 W/m2 unknown
07:14 42.8 °F 42.8 °F 30.2 in SW 1.2 mph 2.5 mph 96% 0 in 0.00 W/m2 unknown
07:19 42.8 °F 42.8 °F 30.2 in SW 1.9 mph 2.5 mph 97% 0 in 0.00 W/m2 unknown
07:24 42.8 °F 42.8 °F 30.2 in SW 2.5 mph 3.7 mph 97% 0 in 0.00 W/m2 unknown
07:29 42.8 °F 42.8 °F 30.2 in SW 1.9 mph 3.7 mph 97% 0 in 0.00 W/m2 unknown
07:34 42.8 °F 42.8 °F 30.2 in SW 1.2 mph 2.5 mph 97% 0 in 0.00 W/m2 unknown
07:39 42.8 °F 42.8 °F 30.2 in SSW 1.2 mph 1.9 mph 97% 0 in 0.00 W/m2 unknown
07:44 42.8 °F 42.8 °F 30.2 in South 1.2 mph 1.9 mph 97% 0 in 0.00 W/m2 unknown
07:49 42.8 °F 42.8 °F 30.2 in SSW 1.9 mph 2.5 mph 97% 0 in 0.00 W/m2 unknown
07:54 42.8 °F 42.8 °F 30.2 in WSW 2.5 mph 3.7 mph 97% 0 in 0.00 W/m2 unknown
07:59 42.8 °F 42.8 °F 30.2 in West 1.9 mph 3.7 mph 97% 0 in 0.00 W/m2 unknown
08:04 42.8 °F 42.8 °F 30.2 in West 1.2 mph 1.9 mph 97% 0 in 0.00 W/m2 unknown
08:09 44.6 °F 42.8 °F 30.2 in Calm   1.2 mph 97% 0 in 0.00 W/m2 unknown
08:14 44.6 °F 42.8 °F 30.2 in Calm   1.2 mph 97% 0 in 5.00 W/m2 unknown
08:19 44.6 °F 42.8 °F 30.2 in Calm   1.2 mph 97% 0 in 7.00 W/m2 unknown
08:24 44.6 °F 42.8 °F 30.2 in Calm     97% 0 in 9.00 W/m2 unknown
08:29 44.6 °F 42.8 °F 30.2 in Calm     97% 0 in 11.00 W/m2 unknown
08:34 44.6 °F 42.8 °F 30.2 in Calm     97% 0 in 12.00 W/m2 unknown
08:39 44.6 °F 42.8 °F 30.2 in WSW 0.6 mph 1.2 mph 97% 0 in 14.00 W/m2 unknown
08:44 44.6 °F 42.8 °F 30.2 in WSW 0.6 mph 1.2 mph 97% 0 in 18.00 W/m2 unknown
08:49 44.6 °F 42.8 °F 30.2 in WSW 1.2 mph 2.5 mph 97% 0 in 21.00 W/m2 unknown
08:54 44.6 °F 42.8 °F 30.2 in WSW 1.2 mph 2.5 mph 97% 0 in 21.00 W/m2 unknown
08:59 44.6 °F 42.8 °F 30.3 in WSW 1.2 mph 2.5 mph 97% 0 in 25.00 W/m2 unknown
09:04 44.6 °F 42.8 °F 30.3 in WSW 1.2 mph 2.5 mph 97% 0 in 28.00 W/m2 unknown
09:09 44.6 °F 44.6 °F 30.3 in WSW 1.9 mph 2.5 mph 97% 0 in 28.00 W/m2 unknown
09:14 44.6 °F 44.6 °F 30.3 in WSW 1.2 mph 2.5 mph 97% 0 in 33.00 W/m2 unknown
09:19 44.6 °F 44.6 °F 30.3 in WSW 1.2 mph 2.5 mph 97% 0 in 39.00 W/m2 unknown
09:22 44.6 °F 44.6 °F 30.3 in West 1.9 mph 2.5 mph 97% 0 in 39.00 W/m2 unknown
09:29 44.6 °F 44.6 °F 30.3 in West 1.9 mph 2.5 mph 97% 0 in 39.00 W/m2 unknown
09:34 44.6 °F 44.6 °F 30.3 in West 1.2 mph 2.5 mph 97% 0 in 46.00 W/m2 unknown
09:39 44.6 °F 44.6 °F 30.3 in West 1.9 mph 2.5 mph 97% 0 in 54.00 W/m2 unknown
09:44 44.6 °F 44.6 °F 30.3 in West 1.9 mph 2.5 mph 97% 0 in 62.00 W/m2 unknown
09:49 44.6 °F 44.6 °F 30.3 in West 1.2 mph 2.5 mph 97% 0 in 65.00 W/m2 unknown
09:54 46.4 °F 44.6 °F 30.3 in West 1.2 mph 2.5 mph 97% 0 in 67.00 W/m2 unknown
09:59 46.4 °F 44.6 °F 30.3 in West 1.9 mph 2.5 mph 97% 0 in 67.00 W/m2 unknown
10:04 46.4 °F 44.6 °F 30.3 in West 1.2 mph 2.5 mph 97% 0 in 60.00 W/m2 unknown
10:09 46.4 °F 44.6 °F 30.3 in NW 2.5 mph 3.7 mph 97% 0 in 51.00 W/m2 unknown
10:14 46.4 °F 44.6 °F 30.3 in NW 1.9 mph 3.7 mph 97% 0 in 49.00 W/m2 unknown
10:19 46.4 °F 44.6 °F 30.3 in NW 1.9 mph 3.7 mph 97% 0 in 56.00 W/m2 unknown
10:24 46.4 °F 44.6 °F 30.3 in WNW 2.5 mph 3.1 mph 97% 0 in 63.00 W/m2 unknown
10:29 46.4 °F 46.4 °F 30.3 in WNW 2.5 mph 3.7 mph 97% 0 in 63.00 W/m2 unknown
10:34 46.4 °F 46.4 °F 30.3 in WNW 1.2 mph 3.1 mph 97% 0 in 69.00 W/m2 unknown
10:39 46.4 °F 46.4 °F 30.3 in West 1.9 mph 3.7 mph 97% 0 in 69.00 W/m2 unknown
10:44 46.4 °F 46.4 °F 30.3 in West 1.9 mph 3.7 mph 97% 0 in 81.00 W/m2 unknown
10:49 46.4 °F 46.4 °F 30.3 in WNW 1.9 mph 2.5 mph 97% 0 in 88.00 W/m2 unknown
10:54 46.4 °F 46.4 °F 30.3 in WNW 1.9 mph 2.5 mph 97% 0 in 98.00 W/m2 unknown
10:59 48.2 °F 46.4 °F 30.3 in WNW 1.2 mph 2.5 mph 97% 0 in 98.00 W/m2 unknown
11:04 48.2 °F 46.4 °F 30.3 in WNW 1.2 mph 2.5 mph 97% 0 in 90.00 W/m2 unknown
11:09 48.2 °F 46.4 °F 30.3 in WNW 1.9 mph 3.7 mph 96% 0 in 90.00 W/m2 unknown
11:14 48.2 °F 46.4 °F 30.3 in WNW 1.9 mph 3.1 mph 96% 0 in 81.00 W/m2 unknown
11:19 48.2 °F 46.4 °F 30.3 in WNW 1.9 mph 3.7 mph 96% 0 in 74.00 W/m2 unknown
11:24 48.2 °F 46.4 °F 30.3 in WNW 1.9 mph 3.7 mph 96% 0 in 69.00 W/m2 unknown
11:29 48.2 °F 46.4 °F 30.3 in WNW 2.5 mph 3.7 mph 95% 0 in 67.00 W/m2 unknown
11:34 48.2 °F 46.4 °F 30.3 in NNW 1.9 mph 3.7 mph 95% 0 in 63.00 W/m2 unknown
11:39 48.2 °F 48.2 °F 30.3 in NW 1.9 mph 3.7 mph 95% 0 in 84.00 W/m2 unknown
11:44 48.2 °F 46.4 °F 30.3 in NW 2.5 mph 3.7 mph 94% 0 in 105.00 W/m2 unknown
11:49 50 °F 48.2 °F 30.3 in NW 2.5 mph 3.7 mph 93% 0 in 121.00 W/m2 unknown
11:54 50 °F 48.2 °F 30.3 in NW 2.5 mph 3.7 mph 93% 0 in 123.00 W/m2 unknown
11:59 50 °F 48.2 °F 30.3 in WNW 2.5 mph 3.7 mph 92% 0 in 134.00 W/m2 unknown
12:04 50 °F 46.4 °F 30.3 in WNW 1.9 mph 3.7 mph 91% 0 in 153.00 W/m2 unknown
12:09 50 °F 48.2 °F 30.3 in West 1.9 mph 3.7 mph 91% 0 in 162.00 W/m2 unknown
12:14 50 °F 48.2 °F 30.3 in West 1.9 mph 3.7 mph 91% 0 in 155.00 W/m2 unknown
12:19 50 °F 48.2 °F 30.3 in West 2.5 mph 3.7 mph 90% 0 in 135.00 W/m2 unknown
12:24 50 °F 48.2 °F 30.3 in West 2.5 mph 3.7 mph 90% 0 in 148.00 W/m2 unknown
12:29 50 °F 48.2 °F 30.3 in West 1.9 mph 3.1 mph 90% 0 in 149.00 W/m2 unknown
12:34 50 °F 48.2 °F 30.3 in WNW 2.5 mph 3.7 mph 90% 0 in 149.00 W/m2 unknown
12:39 50 °F 48.2 °F 30.3 in NW 1.9 mph 3.1 mph 90% 0 in 144.00 W/m2 unknown
12:44 50 °F 48.2 °F 30.3 in WNW 1.9 mph 2.5 mph 89% 0 in 135.00 W/m2 unknown
12:49 50 °F 48.2 °F 30.3 in West 1.9 mph 3.7 mph 89% 0 in 137.00 W/m2 unknown
12:54 51.8 °F 48.2 °F 30.3 in WSW 1.9 mph 3.7 mph 89% 0 in 137.00 W/m2 unknown
12:59 51.8 °F 48.2 °F 30.3 in WNW 1.9 mph 3.7 mph 89% 0 in 141.00 W/m2 unknown
13:04 51.8 °F 48.2 °F 30.3 in WNW 1.9 mph 3.7 mph 89% 0 in 142.00 W/m2 unknown
13:09 51.8 °F 48.2 °F 30.3 in WNW 1.9 mph 3.1 mph 88% 0 in 151.00 W/m2 unknown
13:14 51.8 °F 48.2 °F 30.3 in WNW 1.2 mph 2.5 mph 89% 0 in 148.00 W/m2 unknown
13:19 51.8 °F 48.2 °F 30.3 in West 1.2 mph 3.7 mph 89% 0 in 141.00 W/m2 unknown
13:24 51.8 °F 48.2 °F 30.3 in West 1.9 mph 3.7 mph 89% 0 in 148.00 W/m2 unknown
13:28 51.8 °F 48.2 °F 30.3 in West 2.5 mph 3.7 mph 88% 0 in 149.00 W/m2 unknown
13:34 51.8 °F 48.2 °F 30.3 in WNW 2.5 mph 3.7 mph 89% 0 in 149.00 W/m2 unknown
13:39 51.8 °F 48.2 °F 30.3 in West 3.1 mph 3.7 mph 88% 0 in 137.00 W/m2 unknown
13:44 51.8 °F 48.2 °F 30.3 in WSW 3.1 mph 3.7 mph 88% 0 in 125.00 W/m2 unknown
13:49 51.8 °F 48.2 °F 30.3 in West 3.1 mph 3.7 mph 88% 0 in 121.00 W/m2 unknown
13:54 51.8 °F 48.2 °F 30.3 in WSW 3.1 mph 3.7 mph 88% 0 in 120.00 W/m2 unknown
13:59 51.8 °F 48.2 °F 30.3 in WSW 3.1 mph 3.7 mph 88% 0 in 120.00 W/m2 unknown
14:04 51.8 °F 48.2 °F 30.3 in WSW 3.1 mph 3.7 mph 88% 0 in 104.00 W/m2 unknown
14:09 51.8 °F 48.2 °F 30.3 in WSW 2.5 mph 3.7 mph 87% 0 in 97.00 W/m2 unknown
14:14 51.8 °F 48.2 °F 30.3 in WSW 2.5 mph 3.7 mph 87% 0 in 104.00 W/m2 unknown
14:19 51.8 °F 48.2 °F 30.3 in WSW 1.9 mph 3.1 mph 87% 0 in 104.00 W/m2 unknown
14:24 51.8 °F 48.2 °F 30.3 in WSW 1.9 mph 3.7 mph 87% 0 in 95.00 W/m2 unknown
14:29 51.8 °F 48.2 °F 30.3 in WNW 2.5 mph 3.7 mph 87% 0 in 81.00 W/m2 unknown
14:34 51.8 °F 48.2 °F 30.3 in West 1.9 mph 3.7 mph 87% 0 in 74.00 W/m2 unknown
14:39 51.8 °F 48.2 °F 30.3 in West 1.9 mph 3.7 mph 87% 0 in 67.00 W/m2 unknown
14:44 51.8 °F 48.2 °F 30.3 in West 1.9 mph 2.5 mph 87% 0 in 53.00 W/m2 unknown
14:49 51.8 °F 48.2 °F 30.3 in WSW 1.9 mph 3.7 mph 87% 0 in 53.00 W/m2 unknown
14:54 51.8 °F 48.2 °F 30.3 in WNW 1.9 mph 3.7 mph 88% 0 in 49.00 W/m2 unknown
14:59 51.8 °F 48.2 °F 30.3 in NW 1.9 mph 2.5 mph 87% 0 in 47.00 W/m2 unknown
15:04 51.8 °F 48.2 °F 30.3 in NW 1.2 mph 2.5 mph 87% 0 in 49.00 W/m2 unknown
15:09 51.8 °F 48.2 °F 30.3 in NW 1.2 mph 1.9 mph 86% 0 in 42.00 W/m2 unknown
15:14 51.8 °F 48.2 °F 30.3 in NW 1.9 mph 2.5 mph 86% 0 in 26.00 W/m2 unknown
15:19 51.8 °F 48.2 °F 30.3 in NW 1.2 mph 2.5 mph 86% 0 in 26.00 W/m2 unknown
15:24 51.8 °F 48.2 °F 30.3 in WNW 1.2 mph 2.5 mph 87% 0 in 33.00 W/m2 unknown
15:29 51.8 °F 48.2 °F 30.3 in West 1.9 mph 2.5 mph 87% 0 in 39.00 W/m2 unknown
15:34 51.8 °F 48.2 °F 30.3 in West 1.9 mph 2.5 mph 88% 0 in 30.00 W/m2 unknown
15:39 51.8 °F 48.2 °F 30.3 in West 2.5 mph 3.7 mph 88% 0 in 26.00 W/m2 unknown
15:44 51.8 °F 48.2 °F 30.3 in West 2.5 mph 3.1 mph 88% 0 in 23.00 W/m2 unknown
15:49 51.8 °F 48.2 °F 30.3 in West 2.5 mph 3.7 mph 88% 0 in 25.00 W/m2 unknown
15:54 51.8 °F 48.2 °F 30.3 in West 2.5 mph 3.7 mph 88% 0 in 23.00 W/m2 unknown
15:59 51.8 °F 48.2 °F 30.3 in West 2.5 mph 3.7 mph 88% 0 in 21.00 W/m2 unknown
16:04 51.8 °F 48.2 °F 30.3 in West 2.5 mph 3.7 mph 88% 0 in 16.00 W/m2 unknown
16:09 51.8 °F 48.2 °F 30.3 in West 1.9 mph 3.7 mph 88% 0 in 16.00 W/m2 unknown
16:14 51.8 °F 48.2 °F 30.3 in West 2.5 mph 3.7 mph 88% 0 in 12.00 W/m2 unknown
16:19 51.8 °F 48.2 °F 30.3 in WNW 3.1 mph 3.7 mph 88% 0 in 9.00 W/m2 unknown
16:24 51.8 °F 48.2 °F 30.3 in WNW 4.3 mph 6.2 mph 88% 0 in 5.00 W/m2 unknown
16:29 51.8 °F 48.2 °F 30.3 in WNW 5 mph 6.2 mph 88% 0 in 0.00 W/m2 unknown
16:34 51.8 °F 48.2 °F 30.3 in WNW 3.7 mph 5 mph 88% 0 in 0.00 W/m2 unknown
16:39 51.8 °F 48.2 °F 30.3 in WNW 3.1 mph 5 mph 88% 0 in 0.00 W/m2 unknown
16:44 51.8 °F 48.2 °F 30.3 in WNW 2.5 mph 3.7 mph 89% 0 in 0.00 W/m2 unknown
16:49 51.8 °F 48.2 °F 30.3 in West 2.5 mph 3.7 mph 89% 0 in 0.00 W/m2 unknown
16:54 51.8 °F 48.2 °F 30.3 in West 2.5 mph 3.7 mph 89% 0 in 0.00 W/m2 unknown
16:59 51.8 °F 48.2 °F 30.3 in West 1.9 mph 3.1 mph 89% 0 in 0.00 W/m2 unknown
17:04 51.8 °F 48.2 °F 30.3 in West 1.9 mph 2.5 mph 89% 0 in 0.00 W/m2 unknown
17:09 51.8 °F 48.2 °F 30.3 in West 1.2 mph 2.5 mph 89% 0 in 0.00 W/m2 unknown
17:14 51.8 °F 48.2 °F 30.3 in West 1.2 mph 2.5 mph 89% 0 in 0.00 W/m2 unknown
17:19 50 °F 48.2 °F 30.3 in West 1.9 mph 2.5 mph 89% 0 in 0.00 W/m2 unknown
17:24 50 °F 48.2 °F 30.3 in West 1.9 mph 3.1 mph 90% 0 in 0.00 W/m2 unknown
17:29 50 °F 48.2 °F 30.3 in West 1.9 mph 3.7 mph 90% 0 in 0.00 W/m2 unknown
17:34 50 °F 48.2 °F 30.3 in West 1.9 mph 3.1 mph 90% 0 in 0.00 W/m2 unknown
17:39 50 °F 48.2 °F 30.3 in West 1.9 mph 3.7 mph 90% 0 in 0.00 W/m2 unknown
17:44 50 °F 48.2 °F 30.3 in West 2.5 mph 3.7 mph 90% 0 in 0.00 W/m2 unknown
17:49 50 °F 48.2 °F 30.3 in West 2.5 mph 3.7 mph 90% 0 in 0.00 W/m2 unknown
17:54 50 °F 48.2 °F 30.3 in West 1.9 mph 3.7 mph 90% 0 in 0.00 W/m2 unknown
17:59 50 °F 48.2 °F 30.3 in West 2.5 mph 3.7 mph 90% 0 in 0.00 W/m2 unknown
18:04 50 °F 48.2 °F 30.3 in West 2.5 mph 3.7 mph 91% 0 in 0.00 W/m2 unknown
18:09 50 °F 48.2 °F 30.3 in West 1.9 mph 3.7 mph 91% 0 in 0.00 W/m2 unknown
18:14 50 °F 48.2 °F 30.3 in West 2.5 mph 3.7 mph 91% 0 in 0.00 W/m2 unknown
18:19 50 °F 48.2 °F 30.3 in West 2.5 mph 3.7 mph 91% 0 in 0.00 W/m2 unknown
18:24 50 °F 48.2 °F 30.3 in West 2.5 mph 3.7 mph 91% 0 in 0.00 W/m2 unknown
18:29 50 °F 48.2 °F 30.3 in WNW 2.5 mph 3.7 mph 91% 0 in 0.00 W/m2 unknown
18:34 50 °F 48.2 °F 30.3 in West 2.5 mph 3.7 mph 91% 0 in 0.00 W/m2 unknown
18:39 50 °F 48.2 °F 30.3 in West 1.9 mph 3.7 mph 91% 0 in 0.00 W/m2 unknown
18:44 50 °F 48.2 °F 30.3 in West 1.9 mph 3.7 mph 91% 0 in 0.00 W/m2 unknown
18:49 50 °F 48.2 °F 30.3 in West 1.9 mph 3.7 mph 91% 0 in 0.00 W/m2 unknown
18:54 50 °F 48.2 °F 30.3 in West 1.9 mph 3.1 mph 92% 0 in 0.00 W/m2 unknown
18:59 50 °F 48.2 °F 30.3 in West 2.5 mph 3.7 mph 92% 0 in 0.00 W/m2 unknown
19:04 50 °F 48.2 °F 30.3 in West 1.9 mph 3.1 mph 92% 0 in 0.00 W/m2 unknown
19:09 50 °F 48.2 °F 30.3 in West 1.2 mph 2.5 mph 92% 0 in 0.00 W/m2 unknown
19:14 50 °F 48.2 °F 30.3 in West 1.2 mph 2.5 mph 92% 0 in 0.00 W/m2 unknown
19:19 50 °F 48.2 °F 30.3 in West 1.2 mph 2.5 mph 92% 0 in 0.00 W/m2 unknown
19:24 50 °F 48.2 °F 30.3 in West 1.2 mph 2.5 mph 92% 0 in 0.00 W/m2 unknown
19:29 50 °F 46.4 °F 30.3 in West 1.2 mph 2.5 mph 92% 0 in 0.00 W/m2 unknown
19:34 50 °F 46.4 °F 30.3 in West 1.2 mph 2.5 mph 92% 0 in 0.00 W/m2 unknown
19:39 50 °F 46.4 °F 30.3 in West 1.9 mph 2.5 mph 92% 0 in 0.00 W/m2 unknown
19:44 50 °F 46.4 °F 30.3 in WNW 1.9 mph 2.5 mph 92% 0 in 0.00 W/m2 unknown
19:49 50 °F 46.4 °F 30.3 in West 1.2 mph 2.5 mph 92% 0 in 0.00 W/m2 unknown
19:54 50 °F 46.4 °F 30.3 in WNW 1.9 mph 3.7 mph 92% 0 in 0.00 W/m2 unknown
19:59 50 °F 48.2 °F 30.3 in WNW 1.9 mph 3.1 mph 93% 0 in 0.00 W/m2 unknown
20:04 50 °F 48.2 °F 30.3 in WNW 1.2 mph 2.5 mph 93% 0 in 0.00 W/m2 unknown
20:09 50 °F 48.2 °F 30.3 in WNW 1.9 mph 3.7 mph 93% 0 in 0.00 W/m2 unknown
20:14 48.2 °F 46.4 °F 30.3 in WNW 2.5 mph 3.7 mph 93% 0 in 0.00 W/m2 unknown
20:19 48.2 °F 46.4 °F 30.3 in WNW 1.9 mph 3.7 mph 93% 0 in 0.00 W/m2 unknown
20:24 48.2 °F 46.4 °F 30.3 in West 1.9 mph 3.1 mph 93% 0 in 0.00 W/m2 unknown
20:29 48.2 °F 46.4 °F 30.3 in West 2.5 mph 3.7 mph 93% 0 in 0.00 W/m2 unknown
20:34 48.2 °F 46.4 °F 30.3 in West 2.5 mph 3.7 mph 93% 0 in 0.00 W/m2 unknown
20:39 48.2 °F 46.4 °F 30.3 in West 2.5 mph 3.7 mph 93% 0 in 0.00 W/m2 unknown
20:44 48.2 °F 46.4 °F 30.3 in West 1.9 mph 3.7 mph 93% 0 in 0.00 W/m2 unknown
20:49 48.2 °F 46.4 °F 30.3 in WSW 1.9 mph 3.7 mph 93% 0 in 0.00 W/m2 unknown
20:54 48.2 °F 46.4 °F 30.3 in WSW 3.7 mph 3.7 mph 93% 0 in 0.00 W/m2 unknown
20:59 48.2 °F 46.4 °F 30.3 in WSW 3.1 mph 3.7 mph 93% 0 in 0.00 W/m2 unknown
21:04 48.2 °F 46.4 °F 30.3 in West 3.1 mph 3.7 mph 93% 0 in 0.00 W/m2 unknown
21:09 48.2 °F 46.4 °F 30.3 in WSW 1.9 mph 3.7 mph 93% 0 in 0.00 W/m2 unknown
21:14 48.2 °F 46.4 °F 30.3 in West 2.5 mph 3.7 mph 93% 0 in 0.00 W/m2 unknown
21:19 48.2 °F 46.4 °F 30.3 in West 2.5 mph 3.7 mph 94% 0 in 0.00 W/m2 unknown
21:24 48.2 °F 46.4 °F 30.3 in WSW 3.1 mph 3.7 mph 94% 0 in 0.00 W/m2 unknown
21:29 48.2 °F 46.4 °F 30.3 in WSW 2.5 mph 3.7 mph 94% 0 in 0.00 W/m2 unknown
21:32 48.2 °F 46.4 °F 30.3 in West 2.5 mph 3.7 mph 94% 0 in 0.00 W/m2 unknown
21:39 48.2 °F 46.4 °F 30.3 in West 3.1 mph 5 mph 94% 0 in 0.00 W/m2 unknown
21:44 48.2 °F 46.4 °F 30.3 in West 3.1 mph 5 mph 94% 0 in 0.00 W/m2 unknown
21:49 48.2 °F 46.4 °F 30.3 in West 3.1 mph 5 mph 94% 0 in 0.00 W/m2 unknown
21:54 48.2 °F 46.4 °F 30.3 in West 2.5 mph 3.7 mph 94% 0 in 0.00 W/m2 unknown
21:59 48.2 °F 46.4 °F 30.3 in West 3.1 mph 5 mph 94% 0 in 0.00 W/m2 unknown
22:04 48.2 °F 46.4 °F 30.3 in West 3.1 mph 5 mph 94% 0 in 0.00 W/m2 unknown
22:09 48.2 °F 46.4 °F 30.3 in West 3.1 mph 3.7 mph 94% 0 in 0.00 W/m2 unknown
22:14 48.2 °F 46.4 °F 30.3 in West 3.1 mph 3.7 mph 94% 0 in 0.00 W/m2 unknown
22:19 48.2 °F 46.4 °F 30.3 in West 3.1 mph 3.7 mph 94% 0 in 0.00 W/m2 unknown
22:24 48.2 °F 46.4 °F 30.3 in West 3.1 mph 3.7 mph 94% 0 in 0.00 W/m2 unknown
22:29 48.2 °F 46.4 °F 30.3 in West 2.5 mph 3.7 mph 94% 0 in 0.00 W/m2 unknown
22:34 48.2 °F 46.4 °F 30.3 in WSW 1.9 mph 3.7 mph 94% 0 in 0.00 W/m2 unknown
22:39 48.2 °F 46.4 °F 30.3 in WSW 3.1 mph 3.7 mph 94% 0 in 0.00 W/m2 unknown
22:44 48.2 °F 46.4 °F 30.3 in West 3.1 mph 3.7 mph 94% 0 in 0.00 W/m2 unknown
22:49 48.2 °F 46.4 °F 30.3 in West 2.5 mph 3.7 mph 94% 0 in 0.00 W/m2 unknown
22:54 48.2 °F 46.4 °F 30.3 in West 3.1 mph 3.7 mph 94% 0 in 0.00 W/m2 unknown
22:59 48.2 °F 46.4 °F 30.3 in West 2.5 mph 3.7 mph 94% 0 in 0.00 W/m2 unknown
23:04 48.2 °F 46.4 °F 30.3 in West 1.9 mph 3.7 mph 95% 0 in 0.00 W/m2 unknown
23:09 48.2 °F 46.4 °F 30.3 in WSW 1.9 mph 3.7 mph 95% 0 in 0.00 W/m2 unknown
23:14 48.2 °F 46.4 °F 30.3 in WSW 1.9 mph 3.1 mph 94% 0 in 0.00 W/m2 unknown
23:19 48.2 °F 46.4 °F 30.3 in West 1.9 mph 3.7 mph 94% 0 in 0.00 W/m2 unknown
23:24 48.2 °F 46.4 °F 30.3 in WSW 1.9 mph 3.7 mph 94% 0 in 0.00 W/m2 unknown
23:29 48.2 °F 46.4 °F 30.3 in WSW 1.9 mph 2.5 mph 94% 0 in 0.00 W/m2 unknown
23:34 48.2 °F 46.4 °F 30.3 in West 1.9 mph 3.7 mph 94% 0 in 0.00 W/m2 unknown
23:39 48.2 °F 46.4 °F 30.3 in WSW 1.9 mph 3.7 mph 94% 0 in 0.00 W/m2 unknown
23:44 48.2 °F 46.4 °F 30.3 in WSW 1.9 mph 3.7 mph 95% 0 in 0.00 W/m2 unknown
23:49 48.2 °F 46.4 °F 30.3 in WSW 2.5 mph 3.7 mph 95% 0 in 0.00 W/m2 unknown
23:54 48.2 °F 46.4 °F 30.3 in West 2.5 mph 3.7 mph 95% 0 in 0.00 W/m2 unknown
23:59 48.2 °F 46.4 °F 30.3 in West 1.9 mph 3.7 mph 95% 0 in 0.00 W/m2 unknown
Stazione Meteorologica MeteoMincio Rivalta s/M (MN)
Con i complimenti di Weather Underground - 4 mb



METEO PILLOLE
Il luogo più caldo della Terra
Dallol - Etiopia
La temperatura media dal 1960 al 1966 è stata di 34,5°C.
Share

Non seguire questo link o sarai bannato dal sito!